Anderson, Pennsylvania
Current Conditions -  °F | °C
As of 8:53 AM on Saturday 20 Dec 2014 (Local Time) from KUNV Reporting Station
Overcast Overcast  
Wind Chill: -7°   Ceiling: 1900
Heat Index: -3°   Visibility: 10mi
Dew Point: -7°   Wind: 7mph
Humidity: 74%   Direction: 290°WNW
Pressure: 30.28"   Gusts: NA
Location:  40.544°N, 77.6033°W
Report Text: KUNV 201353Z 29006KT 10SM OVC019 M03/M07 A3028
Loading
Personal Weather Stations






























Interactive Weather Map New forecast layout! Learn more

10-Day Weather Forecast

Advertisements
Track Severe Weather on mobile